sensor_id;sensor_type;location;lat;lon;timestamp;pressure;altitude;pressure_sealevel;temperature;humidity
60089;BME280;45961;53.574;55.878;2022-11-12T00:00:42;100183.06;;;4.77;96.37
60089;BME280;45961;53.574;55.878;2022-11-12T00:02:01;100189.31;;;4.85;96.39
60089;BME280;45961;53.574;55.878;2022-11-12T00:03:21;100178.19;;;4.84;96.26
60089;BME280;45961;53.574;55.878;2022-11-12T00:04:40;100177.13;;;4.78;96.22
60089;BME280;45961;53.574;55.878;2022-11-12T00:06:00;100171.75;;;4.70;96.38
60089;BME280;45961;53.574;55.878;2022-11-12T00:07:19;100181.34;;;4.76;96.48
60089;BME280;45961;53.574;55.878;2022-11-12T00:08:39;100183.06;;;4.77;96.57
60089;BME280;45961;53.574;55.878;2022-11-12T00:09:59;100196.09;;;4.83;96.56
60089;BME280;45961;53.574;55.878;2022-11-12T00:11:18;100185.66;;;4.78;96.77
60089;BME280;45961;53.574;55.878;2022-11-12T00:12:38;100179.88;;;4.84;96.77
60089;BME280;45961;53.574;55.878;2022-11-12T00:13:58;100183.31;;;4.84;96.71
60089;BME280;45961;53.574;55.878;2022-11-12T00:15:17;100177.34;;;4.85;96.60
60089;BME280;45961;53.574;55.878;2022-11-12T00:16:37;100155.56;;;4.71;96.57
60089;BME280;45961;53.574;55.878;2022-11-12T00:17:56;100165.38;;;4.84;96.49
60089;BME280;45961;53.574;55.878;2022-11-12T00:19:15;100166.78;;;4.75;96.55
60089;BME280;45961;53.574;55.878;2022-11-12T00:20:34;100165.88;;;4.74;96.85
60089;BME280;45961;53.574;55.878;2022-11-12T00:21:53;100137.59;;;4.71;96.88
60089;BME280;45961;53.574;55.878;2022-11-12T00:23:13;100154.25;;;4.84;96.75
60089;BME280;45961;53.574;55.878;2022-11-12T00:24:32;100150.84;;;4.85;96.73
60089;BME280;45961;53.574;55.878;2022-11-12T00:25:59;100137.84;;;4.79;96.74
60089;BME280;45961;53.574;55.878;2022-11-12T00:27:19;100133.47;;;4.76;96.74
60089;BME280;45961;53.574;55.878;2022-11-12T00:28:38;100140.91;;;4.67;96.80
60089;BME280;45961;53.574;55.878;2022-11-12T00:29:57;100130.09;;;4.77;96.76
60089;BME280;45961;53.574;55.878;2022-11-12T00:31:17;100124.78;;;4.71;96.74
60089;BME280;45961;53.574;55.878;2022-11-12T00:32:36;100122.22;;;4.71;96.69
60089;BME280;45961;53.574;55.878;2022-11-12T00:33:56;100111.97;;;4.71;96.65
60089;BME280;45961;53.574;55.878;2022-11-12T00:35:16;100117.00;;;4.68;96.54
60089;BME280;45961;53.574;55.878;2022-11-12T00:36:35;100109.44;;;4.73;96.66
60089;BME280;45961;53.574;55.878;2022-11-12T00:37:55;100116.03;;;4.64;96.73
60089;BME280;45961;53.574;55.878;2022-11-12T00:39:15;100109.06;;;4.60;96.86
60089;BME280;45961;53.574;55.878;2022-11-12T00:40:34;100111.91;;;4.69;96.81
60089;BME280;45961;53.574;55.878;2022-11-12T00:41:54;100092.78;;;4.58;96.69
60089;BME280;45961;53.574;55.878;2022-11-12T00:43:13;100107.56;;;4.67;96.55
60089;BME280;45961;53.574;55.878;2022-11-12T00:44:33;100109.31;;;4.68;96.60
60089;BME280;45961;53.574;55.878;2022-11-12T00:45:53;100105.03;;;4.68;96.60
60089;BME280;45961;53.574;55.878;2022-11-12T00:47:12;100109.31;;;4.68;96.42
60089;BME280;45961;53.574;55.878;2022-11-12T00:48:31;100125.38;;;4.62;96.38
60089;BME280;45961;53.574;55.878;2022-11-12T00:49:51;100118.63;;;4.66;96.36
60089;BME280;45961;53.574;55.878;2022-11-12T00:51:10;100116.16;;;4.69;96.11
60089;BME280;45961;53.574;55.878;2022-11-12T00:52:29;100121.44;;;4.74;95.95
60089;BME280;45961;53.574;55.878;2022-11-12T00:53:49;100119.59;;;4.69;95.78
60089;BME280;45961;53.574;55.878;2022-11-12T00:55:08;100100.88;;;4.72;95.74
60089;BME280;45961;53.574;55.878;2022-11-12T00:56:28;100106.88;;;4.73;95.64
60089;BME280;45961;53.574;55.878;2022-11-12T00:57:47;100102.31;;;4.62;95.39
60089;BME280;45961;53.574;55.878;2022-11-12T00:59:07;100101.78;;;4.74;95.54
60089;BME280;45961;53.574;55.878;2022-11-12T01:00:27;100098.41;;;4.75;95.31
60089;BME280;45961;53.574;55.878;2022-11-12T01:01:47;100099.16;;;4.71;95.26
60089;BME280;45961;53.574;55.878;2022-11-12T01:03:06;100101.78;;;4.74;95.24
60089;BME280;45961;53.574;55.878;2022-11-12T01:04:25;100096.66;;;4.74;95.27
60089;BME280;45961;53.574;55.878;2022-11-12T01:05:45;100083.66;;;4.68;95.27
60089;BME280;45961;53.574;55.878;2022-11-12T01:07:04;100092.31;;;4.72;95.30
60089;BME280;45961;53.574;55.878;2022-11-12T01:08:23;100082.91;;;4.70;95.24
60089;BME280;45961;53.574;55.878;2022-11-12T01:09:43;100085.53;;;4.74;95.17
60089;BME280;45961;53.574;55.878;2022-11-12T01:11:29;100081.28;;;4.74;95.04
60089;BME280;45961;53.574;55.878;2022-11-12T01:12:48;100082.16;;;4.75;94.98
60089;BME280;45961;53.574;55.878;2022-11-12T01:14:09;100083.03;;;4.75;94.67
60089;BME280;45961;53.574;55.878;2022-11-12T01:15:28;100075.38;;;4.77;94.79
60089;BME280;45961;53.574;55.878;2022-11-12T01:16:47;100060.13;;;4.53;94.63
60089;BME280;45961;53.574;55.878;2022-11-12T01:18:07;100088.22;;;4.78;94.70
60089;BME280;45961;53.574;55.878;2022-11-12T01:19:26;100081.19;;;4.71;94.56
60089;BME280;45961;53.574;55.878;2022-11-12T01:20:46;100081.38;;;4.77;94.71
60089;BME280;45961;53.574;55.878;2022-11-12T01:22:05;100070.44;;;4.83;94.58
60089;BME280;45961;53.574;55.878;2022-11-12T01:23:25;100071.00;;;4.74;94.69
60089;BME280;45961;53.574;55.878;2022-11-12T01:24:44;100071.06;;;4.76;94.57
60089;BME280;45961;53.574;55.878;2022-11-12T01:26:05;100073.78;;;4.80;94.46
60089;BME280;45961;53.574;55.878;2022-11-12T01:27:24;100075.47;;;4.80;94.33
60089;BME280;45961;53.574;55.878;2022-11-12T01:28:44;100086.34;;;4.71;94.54
60089;BME280;45961;53.574;55.878;2022-11-12T01:30:05;100072.91;;;4.80;94.37
60089;BME280;45961;53.574;55.878;2022-11-12T01:31:28;100072.03;;;4.79;94.42
60089;BME280;45961;53.574;55.878;2022-11-12T01:32:48;100095.03;;;4.76;94.52
60089;BME280;45961;53.574;55.878;2022-11-12T01:34:08;100071.31;;;4.83;94.54
60089;BME280;45961;53.574;55.878;2022-11-12T01:35:28;100068.66;;;4.80;94.35
60089;BME280;45961;53.574;55.878;2022-11-12T01:36:48;100072.03;;;4.79;94.25
60089;BME280;45961;53.574;55.878;2022-11-12T01:38:07;100078.94;;;4.82;94.28
60089;BME280;45961;53.574;55.878;2022-11-12T01:39:26;100073.91;;;4.85;94.28
60089;BME280;45961;53.574;55.878;2022-11-12T01:40:45;100083.44;;;4.89;94.26
60089;BME280;45961;53.574;55.878;2022-11-12T01:42:04;100081.72;;;4.89;94.28
60089;BME280;45961;53.574;55.878;2022-11-12T01:43:24;100081.00;;;4.93;94.15
60089;BME280;45961;53.574;55.878;2022-11-12T01:44:44;100068.78;;;4.85;94.00
60089;BME280;45961;53.574;55.878;2022-11-12T01:46:11;100085.97;;;4.87;93.85
60089;BME280;45961;53.574;55.878;2022-11-12T01:47:33;100064.72;;;4.91;94.04
60089;BME280;45961;53.574;55.878;2022-11-12T01:48:59;100077.56;;;4.93;93.75
60089;BME280;45961;53.574;55.878;2022-11-12T01:50:29;100075.84;;;4.92;93.74
60089;BME280;45961;53.574;55.878;2022-11-12T01:51:53;100080.25;;;4.98;93.70
60089;BME280;45961;53.574;55.878;2022-11-12T01:53:15;100076.50;;;4.86;93.80
60089;BME280;45961;53.574;55.878;2022-11-12T01:54:35;100076.81;;;4.95;93.77
60089;BME280;45961;53.574;55.878;2022-11-12T01:55:55;100086.09;;;4.92;93.69
60089;BME280;45961;53.574;55.878;2022-11-12T01:57:24;100080.19;;;4.94;93.59
60089;BME280;45961;53.574;55.878;2022-11-12T01:58:46;100079.50;;;5.00;93.39
60089;BME280;45961;53.574;55.878;2022-11-12T02:00:09;100075.09;;;4.96;93.50
60089;BME280;45961;53.574;55.878;2022-11-12T02:01:29;100068.41;;;5.01;93.42
60089;BME280;45961;53.574;55.878;2022-11-12T02:02:55;100066.81;;;5.06;93.44
60089;BME280;45961;53.574;55.878;2022-11-12T02:04:16;100071.94;;;5.05;93.27
60089;BME280;45961;53.574;55.878;2022-11-12T02:05:36;100075.31;;;5.04;93.11
60089;BME280;45961;53.574;55.878;2022-11-12T02:06:57;100072.75;;;5.04;93.21
60089;BME280;45961;53.574;55.878;2022-11-12T02:08:17;100065.66;;;4.95;93.21
60089;BME280;45961;53.574;55.878;2022-11-12T02:09:38;100057.91;;;4.93;93.25
60089;BME280;45961;53.574;55.878;2022-11-12T02:10:57;100059.69;;;4.94;93.42
60089;BME280;45961;53.574;55.878;2022-11-12T02:12:17;100052.78;;;4.93;93.46
60089;BME280;45961;53.574;55.878;2022-11-12T02:14:14;100064.22;;;5.05;93.42
60089;BME280;45961;53.574;55.878;2022-11-12T02:15:34;100060.59;;;4.98;93.34
60089;BME280;45961;53.574;55.878;2022-11-12T02:16:55;100037.41;;;4.93;93.34
60089;BME280;45961;53.574;55.878;2022-11-12T02:18:14;100051.31;;;5.02;93.27
60089;BME280;45961;53.574;55.878;2022-11-12T02:19:36;100053.75;;;4.97;93.14
60089;BME280;45961;53.574;55.878;2022-11-12T02:20:57;100047.00;;;5.01;93.37
60089;BME280;45961;53.574;55.878;2022-11-12T02:22:18;100035.69;;;4.94;93.26
60089;BME280;45961;53.574;55.878;2022-11-12T02:23:37;100047.94;;;5.03;93.23
60089;BME280;45961;53.574;55.878;2022-11-12T02:24:57;100036.94;;;5.07;93.08
60089;BME280;45961;53.574;55.878;2022-11-12T02:26:16;100035.56;;;4.89;93.27
60089;BME280;45961;53.574;55.878;2022-11-12T02:27:36;100033.41;;;5.03;93.31
60089;BME280;45961;53.574;55.878;2022-11-12T02:28:55;100046.16;;;5.00;93.16
60089;BME280;45961;53.574;55.878;2022-11-12T02:30:14;100018.41;;;4.87;93.10
60089;BME280;45961;53.574;55.878;2022-11-12T02:31:34;100037.75;;;5.06;93.22
60089;BME280;45961;53.574;55.878;2022-11-12T02:32:53;100039.53;;;5.08;93.08
60089;BME280;45961;53.574;55.878;2022-11-12T02:34:13;100031.72;;;5.04;92.85
60089;BME280;45961;53.574;55.878;2022-11-12T02:35:33;100029.16;;;5.04;92.90
60089;BME280;45961;53.574;55.878;2022-11-12T02:36:53;100043.84;;;5.09;92.90
60089;BME280;45961;53.574;55.878;2022-11-12T02:38:12;100037.94;;;5.12;92.74
60089;BME280;45961;53.574;55.878;2022-11-12T02:39:32;100026.63;;;5.05;92.72
60089;BME280;45961;53.574;55.878;2022-11-12T02:40:51;100023.22;;;5.06;92.48
60089;BME280;45961;53.574;55.878;2022-11-12T02:42:11;100032.72;;;5.09;92.52
60089;BME280;45961;53.574;55.878;2022-11-12T02:43:30;100035.50;;;5.16;92.59
60089;BME280;45961;53.574;55.878;2022-11-12T02:44:49;100005.84;;;4.96;92.55
60089;BME280;45961;53.574;55.878;2022-11-12T02:46:09;100026.69;;;5.07;92.77
60089;BME280;45961;53.574;55.878;2022-11-12T02:47:29;100024.84;;;5.03;92.87
60089;BME280;45961;53.574;55.878;2022-11-12T02:48:48;100026.75;;;5.10;92.84
60089;BME280;45961;53.574;55.878;2022-11-12T02:50:08;100021.50;;;5.05;92.99
60089;BME280;45961;53.574;55.878;2022-11-12T02:51:28;100024.78;;;5.01;92.98
60089;BME280;45961;53.574;55.878;2022-11-12T02:52:47;100029.16;;;5.04;93.22
60089;BME280;45961;53.574;55.878;2022-11-12T02:54:06;100025.59;;;4.99;93.21
60089;BME280;45961;53.574;55.878;2022-11-12T02:55:26;100022.34;;;5.06;93.30
60089;BME280;45961;53.574;55.878;2022-11-12T02:56:45;100027.47;;;5.06;93.35
60089;BME280;45961;53.574;55.878;2022-11-12T02:58:04;100019.00;;;5.08;93.44
60089;BME280;45961;53.574;55.878;2022-11-12T02:59:24;100018.19;;;5.09;93.23
60089;BME280;45961;53.574;55.878;2022-11-12T03:00:43;100018.25;;;5.11;93.26
60089;BME280;45961;53.574;55.878;2022-11-12T03:02:02;100020.72;;;5.08;93.43
60089;BME280;45961;53.574;55.878;2022-11-12T03:03:22;99997.44;;;5.02;93.30
60089;BME280;45961;53.574;55.878;2022-11-12T03:04:42;100014.13;;;5.17;93.29
60089;BME280;45961;53.574;55.878;2022-11-12T03:06:01;100014.84;;;5.12;93.13
60089;BME280;45961;53.574;55.878;2022-11-12T03:07:20;100020.00;;;5.13;93.20
60089;BME280;45961;53.574;55.878;2022-11-12T03:08:40;100019.13;;;5.13;93.17
60089;BME280;45961;53.574;55.878;2022-11-12T03:10:00;100014.88;;;5.13;93.06
60089;BME280;45961;53.574;55.878;2022-11-12T03:11:19;100015.41;;;5.02;93.11
60089;BME280;45961;53.574;55.878;2022-11-12T03:12:39;100005.22;;;5.05;93.29
60089;BME280;45961;53.574;55.878;2022-11-12T03:13:58;100012.97;;;5.06;93.53
60089;BME280;45961;53.574;55.878;2022-11-12T03:15:18;99970.28;;;4.78;93.38
60089;BME280;45961;53.574;55.878;2022-11-12T03:16:38;100010.28;;;5.02;93.70
60089;BME280;45961;53.574;55.878;2022-11-12T03:17:58;100007.78;;;5.05;93.68
60089;BME280;45961;53.574;55.878;2022-11-12T03:19:18;100009.72;;;5.12;93.72
60089;BME280;45961;53.574;55.878;2022-11-12T03:20:37;99999.31;;;5.07;93.63
60089;BME280;45961;53.574;55.878;2022-11-12T03:21:57;100009.63;;;5.09;93.59
60089;BME280;45961;53.574;55.878;2022-11-12T03:23:16;100003.41;;;5.01;93.59
60089;BME280;45961;53.574;55.878;2022-11-12T03:24:36;100009.63;;;5.09;93.54
60089;BME280;45961;53.574;55.878;2022-11-12T03:25:55;100009.50;;;5.04;93.62
60089;BME280;45961;53.574;55.878;2022-11-12T03:27:14;100013.84;;;5.07;93.49
60089;BME280;45961;53.574;55.878;2022-11-12T03:28:34;100011.13;;;5.02;93.64
60089;BME280;45961;53.574;55.878;2022-11-12T03:29:53;100008.63;;;5.04;93.68
60089;BME280;45961;53.574;55.878;2022-11-12T03:31:13;100010.22;;;5.00;93.66
60089;BME280;45961;53.574;55.878;2022-11-12T03:32:32;100000.19;;;5.08;93.79
60089;BME280;45961;53.574;55.878;2022-11-12T03:33:52;99969.09;;;4.97;93.58
60089;BME280;45961;53.574;55.878;2022-11-12T03:35:11;99990.69;;;5.05;93.49
60089;BME280;45961;53.574;55.878;2022-11-12T03:36:30;99989.94;;;5.08;93.39
60089;BME280;45961;53.574;55.878;2022-11-12T03:37:49;100002.84;;;5.11;93.53
60089;BME280;45961;53.574;55.878;2022-11-12T03:39:09;99984.72;;;5.05;93.40
60089;BME280;45961;53.574;55.878;2022-11-12T03:40:30;99970.59;;;4.89;93.63
60089;BME280;45961;53.574;55.878;2022-11-12T03:41:50;99990.69;;;5.05;93.55
60089;BME280;45961;53.574;55.878;2022-11-12T03:43:10;99984.72;;;5.05;93.57
60089;BME280;45961;53.574;55.878;2022-11-12T03:44:29;99982.75;;;4.96;93.46
60089;BME280;45961;53.574;55.878;2022-11-12T03:45:49;99980.31;;;5.01;93.68
60089;BME280;45961;53.574;55.878;2022-11-12T03:47:08;99985.63;;;5.07;93.71
60089;BME280;45961;53.574;55.878;2022-11-12T03:48:27;99971.00;;;5.04;93.53
60089;BME280;45961;53.574;55.878;2022-11-12T03:49:48;99974.47;;;5.06;93.44
60089;BME280;45961;53.574;55.878;2022-11-12T03:51:21;99964.06;;;5.00;93.58
60089;BME280;45961;53.574;55.878;2022-11-12T03:52:49;99971.00;;;5.03;93.54
60089;BME280;45961;53.574;55.878;2022-11-12T03:54:08;99967.50;;;5.01;93.58
60089;BME280;45961;53.574;55.878;2022-11-12T03:55:28;99968.34;;;5.01;93.58
60089;BME280;45961;53.574;55.878;2022-11-12T03:56:48;99968.44;;;5.04;93.78
60089;BME280;45961;53.574;55.878;2022-11-12T03:58:08;99961.63;;;5.05;93.71
60089;BME280;45961;53.574;55.878;2022-11-12T03:59:27;99963.09;;;4.97;93.59
60089;BME280;45961;53.574;55.878;2022-11-12T04:01:07;99955.97;;;4.86;93.87
60089;BME280;45961;53.574;55.878;2022-11-12T04:02:26;99951.81;;;4.90;94.04
60089;BME280;45961;53.574;55.878;2022-11-12T04:03:47;99955.41;;;4.97;94.04
60089;BME280;45961;53.574;55.878;2022-11-12T04:05:08;99951.25;;;5.00;93.98
60089;BME280;45961;53.574;55.878;2022-11-12T04:06:46;99948.69;;;5.00;93.87
60089;BME280;45961;53.574;55.878;2022-11-12T04:08:24;99934.00;;;4.94;93.77
60089;BME280;45961;53.574;55.878;2022-11-12T04:10:15;99940.03;;;4.97;93.62
60089;BME280;45961;53.574;55.878;2022-11-12T04:11:35;99934.91;;;4.97;93.40
60089;BME280;45961;53.574;55.878;2022-11-12T04:12:55;99920.25;;;4.92;93.48
60089;BME280;45961;53.574;55.878;2022-11-12T04:14:33;99941.09;;;5.05;93.37
60089;BME280;45961;53.574;55.878;2022-11-12T04:17:41;99928.03;;;4.95;93.26
60089;BME280;45961;53.574;55.878;2022-11-12T04:19:23;99913.44;;;4.93;93.36
60089;BME280;45961;53.574;55.878;2022-11-12T04:21:02;99920.13;;;4.88;93.53
60089;BME280;45961;53.574;55.878;2022-11-12T04:22:40;99890.03;;;4.82;93.36
60089;BME280;45961;53.574;55.878;2022-11-12T04:23:59;99899.00;;;4.97;93.24
60089;BME280;45961;53.574;55.878;2022-11-12T04:25:18;99903.47;;;5.04;93.16
60089;BME280;45961;53.574;55.878;2022-11-12T04:26:56;99913.59;;;4.99;93.19
60089;BME280;45961;53.574;55.878;2022-11-12T04:28:16;99913.66;;;5.02;93.27
60089;BME280;45961;53.574;55.878;2022-11-12T04:29:36;99916.19;;;5.01;93.37
60089;BME280;45961;53.574;55.878;2022-11-12T04:31:14;99912.75;;;4.99;93.36
60089;BME280;45961;53.574;55.878;2022-11-12T04:32:35;99915.16;;;4.94;93.17
60089;BME280;45961;53.574;55.878;2022-11-12T04:33:55;99912.47;;;4.89;93.25
60089;BME280;45961;53.574;55.878;2022-11-12T04:35:37;99912.38;;;4.86;93.52
60089;BME280;45961;53.574;55.878;2022-11-12T04:36:57;99909.75;;;4.83;93.70
60089;BME280;45961;53.574;55.878;2022-11-12T04:38:19;99907.31;;;4.88;93.90
60089;BME280;45961;53.574;55.878;2022-11-12T04:39:41;99901.09;;;4.80;93.78
60089;BME280;45961;53.574;55.878;2022-11-12T04:41:01;99895.00;;;4.75;93.99
60089;BME280;45961;53.574;55.878;2022-11-12T04:42:40;99894.84;;;4.70;94.06
60089;BME280;45961;53.574;55.878;2022-11-12T04:44:18;99896.84;;;4.80;94.28
60089;BME280;45961;53.574;55.878;2022-11-12T04:45:56;99893.31;;;4.75;94.23
60089;BME280;45961;53.574;55.878;2022-11-12T04:47:16;99893.22;;;4.74;94.17
60089;BME280;45961;53.574;55.878;2022-11-12T04:48:35;99899.22;;;4.74;94.27
60089;BME280;45961;53.574;55.878;2022-11-12T04:49:55;99899.28;;;4.76;94.21
60089;BME280;45961;53.574;55.878;2022-11-12T04:51:15;99904.75;;;4.58;94.13
60089;BME280;45961;53.574;55.878;2022-11-12T04:53:13;99897.50;;;4.73;94.18
60089;BME280;45961;53.574;55.878;2022-11-12T04:54:33;99902.06;;;4.83;94.27
60089;BME280;45961;53.574;55.878;2022-11-12T04:55:53;99896.63;;;4.73;94.06
60089;BME280;45961;53.574;55.878;2022-11-12T04:57:13;99894.16;;;4.76;94.17
60089;BME280;45961;53.574;55.878;2022-11-12T04:58:33;99890.75;;;4.77;94.23
60089;BME280;45961;53.574;55.878;2022-11-12T04:59:52;99902.81;;;4.79;93.89
60089;BME280;45961;53.574;55.878;2022-11-12T05:01:11;99901.88;;;4.77;94.11
60089;BME280;45961;53.574;55.878;2022-11-12T05:02:30;99904.22;;;4.68;94.32
60089;BME280;45961;53.574;55.878;2022-11-12T05:03:49;99902.53;;;4.70;94.36
60089;BME280;45961;53.574;55.878;2022-11-12T05:05:09;99914.47;;;4.68;94.14
60089;BME280;45961;53.574;55.878;2022-11-12T05:06:29;99908.41;;;4.66;94.71
60089;BME280;45961;53.574;55.878;2022-11-12T05:08:07;99902.63;;;4.73;94.73
60089;BME280;45961;53.574;55.878;2022-11-12T05:09:27;99906.78;;;4.68;94.74
60089;BME280;45961;53.574;55.878;2022-11-12T05:10:47;99903.47;;;4.72;94.93
60089;BME280;45961;53.574;55.878;2022-11-12T05:12:06;99898.00;;;4.60;94.94
60089;BME280;45961;53.574;55.878;2022-11-12T05:13:26;99907.66;;;4.70;94.98
60089;BME280;45961;53.574;55.878;2022-11-12T05:14:47;99912.66;;;4.65;95.05
60089;BME280;45961;53.574;55.878;2022-11-12T05:16:07;99925.34;;;4.59;94.84
60089;BME280;45961;53.574;55.878;2022-11-12T05:17:26;99901.63;;;4.66;94.88
60089;BME280;45961;53.574;55.878;2022-11-12T05:18:48;99905.94;;;4.69;95.04
60089;BME280;45961;53.574;55.878;2022-11-12T05:20:11;99912.00;;;4.71;95.20
60089;BME280;45961;53.574;55.878;2022-11-12T05:21:31;99899.28;;;4.76;95.04
60089;BME280;45961;53.574;55.878;2022-11-12T05:23:09;99888.81;;;4.68;95.01
60089;BME280;45961;53.574;55.878;2022-11-12T05:24:29;99888.72;;;4.65;95.16
60089;BME280;45961;53.574;55.878;2022-11-12T05:25:49;99894.84;;;4.70;95.16
60089;BME280;45961;53.574;55.878;2022-11-12T05:27:12;99905.19;;;4.73;95.19
60089;BME280;45961;53.574;55.878;2022-11-12T05:28:32;99892.44;;;4.75;95.16
60089;BME280;45961;53.574;55.878;2022-11-12T05:29:51;99892.38;;;4.73;95.20
60089;BME280;45961;53.574;55.878;2022-11-12T05:31:10;99889.03;;;4.76;95.28
60089;BME280;45961;53.574;55.878;2022-11-12T05:32:30;99895.03;;;4.76;95.00
60089;BME280;45961;53.574;55.878;2022-11-12T05:33:49;99883.03;;;4.75;95.19
60089;BME280;45961;53.574;55.878;2022-11-12T05:35:09;99888.84;;;4.69;95.31
60089;BME280;45961;53.574;55.878;2022-11-12T05:36:29;99888.19;;;4.77;95.30
60089;BME280;45961;53.574;55.878;2022-11-12T05:37:48;99883.91;;;4.76;95.28
60089;BME280;45961;53.574;55.878;2022-11-12T05:39:08;99875.16;;;4.69;95.48
60089;BME280;45961;53.574;55.878;2022-11-12T05:40:28;99878.94;;;4.82;95.32
60089;BME280;45961;53.574;55.878;2022-11-12T05:41:48;99874.50;;;4.76;95.30
60089;BME280;45961;53.574;55.878;2022-11-12T05:43:13;99875.41;;;4.78;95.37
60089;BME280;45961;53.574;55.878;2022-11-12T05:44:49;99871.34;;;4.86;95.28
60089;BME280;45961;53.574;55.878;2022-11-12T05:46:12;99864.56;;;4.88;95.60
60089;BME280;45961;53.574;55.878;2022-11-12T05:47:34;99867.91;;;4.86;95.66
60089;BME280;45961;53.574;55.878;2022-11-12T05:48:57;99868.72;;;4.83;95.75
60089;BME280;45961;53.574;55.878;2022-11-12T05:50:17;99864.47;;;4.84;95.59
60089;BME280;45961;53.574;55.878;2022-11-12T05:51:39;99842.97;;;4.79;95.37
60089;BME280;45961;53.574;55.878;2022-11-12T05:52:59;99855.19;;;4.89;95.42
60089;BME280;45961;53.574;55.878;2022-11-12T05:54:19;99850.13;;;4.90;95.27
60089;BME280;45961;53.574;55.878;2022-11-12T05:55:38;99848.34;;;4.89;95.26
60089;BME280;45961;53.574;55.878;2022-11-12T05:56:57;99843.94;;;4.84;95.05
60089;BME280;45961;53.574;55.878;2022-11-12T05:58:17;99848.16;;;4.82;95.02
60089;BME280;45961;53.574;55.878;2022-11-12T05:59:36;99843.03;;;4.82;95.00
60089;BME280;45961;53.574;55.878;2022-11-12T06:00:56;99838.72;;;4.79;94.90
60089;BME280;45961;53.574;55.878;2022-11-12T06:02:35;99844.69;;;4.80;94.99
60089;BME280;45961;53.574;55.878;2022-11-12T06:03:55;99838.84;;;4.85;94.98
60089;BME280;45961;53.574;55.878;2022-11-12T06:05:17;99830.25;;;4.83;94.83
60089;BME280;45961;53.574;55.878;2022-11-12T06:06:37;99832.00;;;4.84;94.70
60089;BME280;45961;53.574;55.878;2022-11-12T06:07:59;99833.69;;;4.84;94.60
60089;BME280;45961;53.574;55.878;2022-11-12T06:09:18;99828.69;;;4.88;94.48
60089;BME280;45961;53.574;55.878;2022-11-12T06:10:38;99825.44;;;4.95;94.28
60089;BME280;45961;53.574;55.878;2022-11-12T06:11:58;99825.44;;;4.95;94.17
60089;BME280;45961;53.574;55.878;2022-11-12T06:13:19;99816.06;;;4.96;93.90
60089;BME280;45961;53.574;55.878;2022-11-12T06:14:38;99816.06;;;4.96;93.76
60089;BME280;45961;53.574;55.878;2022-11-12T06:15:58;99821.00;;;4.90;93.80
60089;BME280;45961;53.574;55.878;2022-11-12T06:17:18;99821.22;;;4.98;93.73
60089;BME280;45961;53.574;55.878;2022-11-12T06:18:37;99830.66;;;4.99;93.63
60089;BME280;45961;53.574;55.878;2022-11-12T06:19:59;99820.34;;;4.97;93.54
60089;BME280;45961;53.574;55.878;2022-11-12T06:21:18;99819.19;;;4.86;93.60
60089;BME280;45961;53.574;55.878;2022-11-12T06:22:58;99804.53;;;4.80;93.39
60089;BME280;45961;53.574;55.878;2022-11-12T06:24:17;99823.38;;;4.82;93.66
60089;BME280;45961;53.574;55.878;2022-11-12T06:25:36;99813.09;;;4.81;93.69
60089;BME280;45961;53.574;55.878;2022-11-12T06:26:56;99813.25;;;4.87;93.67
60089;BME280;45961;53.574;55.878;2022-11-12T06:28:15;99807.31;;;4.89;93.73
60089;BME280;45961;53.574;55.878;2022-11-12T06:29:34;99798.69;;;4.86;93.52
60089;BME280;45961;53.574;55.878;2022-11-12T06:30:54;99807.41;;;4.92;93.52
60089;BME280;45961;53.574;55.878;2022-11-12T06:32:13;99802.19;;;4.89;93.28
60089;BME280;45961;53.574;55.878;2022-11-12T06:33:33;99796.94;;;4.83;93.62
60089;BME280;45961;53.574;55.878;2022-11-12T06:34:52;99795.16;;;4.82;93.65
60089;BME280;45961;53.574;55.878;2022-11-12T06:36:14;99786.16;;;4.63;93.90
60089;BME280;45961;53.574;55.878;2022-11-12T06:37:54;99790.78;;;4.78;93.87
60089;BME280;45961;53.574;55.878;2022-11-12T06:39:14;99790.97;;;4.84;93.79
60089;BME280;45961;53.574;55.878;2022-11-12T06:40:33;99793.63;;;4.87;93.80
60089;BME280;45961;53.574;55.878;2022-11-12T06:41:53;99789.25;;;4.83;93.72
60089;BME280;45961;53.574;55.878;2022-11-12T06:43:12;99775.38;;;4.77;93.83
60089;BME280;45961;53.574;55.878;2022-11-12T06:44:33;99780.72;;;4.84;93.79
60089;BME280;45961;53.574;55.878;2022-11-12T06:45:53;99773.03;;;4.86;93.56
60089;BME280;45961;53.574;55.878;2022-11-12T06:47:13;99768.00;;;4.89;93.63
60089;BME280;45961;53.574;55.878;2022-11-12T06:48:32;99781.66;;;4.88;93.49
60089;BME280;45961;53.574;55.878;2022-11-12T06:49:52;99773.91;;;4.86;93.51
60089;BME280;45961;53.574;55.878;2022-11-12T06:51:17;99770.44;;;4.83;93.48
60089;BME280;45961;53.574;55.878;2022-11-12T06:52:37;99761.91;;;4.85;93.32
60089;BME280;45961;53.574;55.878;2022-11-12T06:53:56;99757.84;;;4.93;93.26
60089;BME280;45961;53.574;55.878;2022-11-12T06:55:15;99732.44;;;4.68;93.21
60089;BME280;45961;53.574;55.878;2022-11-12T06:56:35;99751.56;;;4.82;93.20
60089;BME280;45961;53.574;55.878;2022-11-12T06:57:54;99751.66;;;4.85;93.33
60089;BME280;45961;53.574;55.878;2022-11-12T06:59:16;99752.19;;;4.70;93.36
60089;BME280;45961;53.574;55.878;2022-11-12T07:00:36;99736.81;;;4.72;93.24
60089;BME280;45961;53.574;55.878;2022-11-12T07:01:55;99744.72;;;4.81;93.29
60089;BME280;45961;53.574;55.878;2022-11-12T07:03:14;99732.66;;;4.77;93.27
60089;BME280;45961;53.574;55.878;2022-11-12T07:04:34;99743.03;;;4.82;93.11
60089;BME280;45961;53.574;55.878;2022-11-12T07:06:14;99743.97;;;4.85;92.99
60089;BME280;45961;53.574;55.878;2022-11-12T07:07:33;99750.09;;;4.90;92.92
60089;BME280;45961;53.574;55.878;2022-11-12T07:08:52;99739.56;;;4.80;92.74
60089;BME280;45961;53.574;55.878;2022-11-12T07:10:12;99726.66;;;4.75;92.94
60089;BME280;45961;53.574;55.878;2022-11-12T07:11:31;99736.19;;;4.82;93.10